Terra Nova, Canada
Current Conditions -  °F | °C
As of 6:24 AM on Sunday 26 Oct 2014 (Local Time) from CYQX Reporting Station
Drizzle Drizzle  
Wind Chill: 31°   Ceiling: 300
Heat Index: 39°   Visibility: 2.5mi
Dew Point: 39°   Wind: 14mph
Humidity: 100%   Direction: 60°ENE
Pressure: 29.56"   Gusts: NA
Location:  48.5°N, 54.22°W
Report Text: CYQX 260824Z 06012KT 2 1/2SM -DZ BR BKN003 OVC008 04/04 A2956 RMK FG2SF5SF1 SLP016
Loading
Personal Weather Stations






























Interactive Weather Map
Tropical Storm Tracking
New forecast layout! Learn more

10-Day Weather Forecast

Advertisements
Track Severe Weather on mobile